createdAt,value
2019-02-26T00:01:35.567Z,39.67
2019-02-26T00:04:05.910Z,35.73
2019-02-26T00:06:35.796Z,62.03
2019-02-26T00:09:10.162Z,36.27
2019-02-26T00:11:40.965Z,38.47
2019-02-26T00:14:15.528Z,37.70
2019-02-26T00:16:44.589Z,33.17
2019-02-26T00:19:17.531Z,36.15
2019-02-26T00:21:51.973Z,40.10
2019-02-26T00:24:23.248Z,37.40
2019-02-26T00:26:54.333Z,36.73
2019-02-26T00:29:26.031Z,40.45
2019-02-26T00:31:59.703Z,33.73
2019-02-26T00:34:32.280Z,36.20
2019-02-26T00:37:06.305Z,35.73
2019-02-26T00:39:36.569Z,32.93
2019-02-26T00:42:08.874Z,34.80
2019-02-26T00:44:38.885Z,36.90
2019-02-26T00:47:13.176Z,35.33
2019-02-26T00:49:44.163Z,34.63
2019-02-26T00:52:15.620Z,33.47
2019-02-26T00:54:46.765Z,27.03
2019-02-26T00:57:19.309Z,34.10
2019-02-26T00:59:50.364Z,27.20
2019-02-26T01:02:22.487Z,31.93
2019-02-26T01:04:53.482Z,28.77
2019-02-26T01:07:23.847Z,31.10
2019-02-26T01:09:56.945Z,31.37
2019-02-26T01:12:28.455Z,27.80
2019-02-26T01:14:59.513Z,29.53
2019-02-26T01:17:31.250Z,31.27
2019-02-26T01:20:05.751Z,28.63
2019-02-26T01:22:37.842Z,27.83
2019-02-26T01:25:12.685Z,31.97
2019-02-26T01:27:45.579Z,33.43
2019-02-26T01:30:23.598Z,31.70
2019-02-26T01:32:53.955Z,32.37
2019-02-26T01:35:23.978Z,30.63
2019-02-26T01:37:55.857Z,28.00
2019-02-26T01:40:29.064Z,32.37
2019-02-26T01:43:01.111Z,29.67
2019-02-26T01:45:34.259Z,25.20
2019-02-26T01:48:06.321Z,32.33
2019-02-26T01:50:40.607Z,29.17
2019-02-26T01:53:12.181Z,29.47
2019-02-26T01:55:45.521Z,28.70
2019-02-26T01:58:17.476Z,29.17
2019-02-26T02:00:49.840Z,30.13
2019-02-26T02:03:23.099Z,32.33
2019-02-26T02:05:54.837Z,29.47
2019-02-26T02:08:27.112Z,33.20
2019-02-26T02:10:59.844Z,29.27
2019-02-26T02:13:32.631Z,27.70
2019-02-26T02:16:02.693Z,29.63
2019-02-26T02:18:36.393Z,29.27
2019-02-26T02:21:06.365Z,32.13
2019-02-26T02:23:37.217Z,30.47
2019-02-26T02:26:08.953Z,30.47
2019-02-26T02:28:39.769Z,31.97
2019-02-26T02:31:09.037Z,32.13
2019-02-26T02:33:42.959Z,31.50
2019-02-26T02:36:17.726Z,30.03
2019-02-26T02:38:47.391Z,29.43
2019-02-26T02:41:18.605Z,32.73
2019-02-26T02:43:51.138Z,29.23
2019-02-26T02:46:22.227Z,28.40
2019-02-26T02:48:53.098Z,30.05
2019-02-26T02:51:25.747Z,34.70
2019-02-26T02:54:00.034Z,30.50
2019-02-26T02:56:33.392Z,29.13
2019-02-26T02:59:08.280Z,30.53
2019-02-26T03:01:37.188Z,35.80
2019-02-26T03:04:08.156Z,31.83
2019-02-26T03:06:39.208Z,37.80
2019-02-26T03:09:17.709Z,30.90
2019-02-26T03:11:49.721Z,42.33
2019-02-26T03:14:20.221Z,36.57
2019-02-26T03:16:53.393Z,38.13
2019-02-26T03:19:24.912Z,33.83
2019-02-26T03:21:56.029Z,38.97
2019-02-26T03:24:30.245Z,38.63
2019-02-26T03:27:01.846Z,40.23
2019-02-26T03:29:32.770Z,38.87
2019-02-26T03:32:02.654Z,38.93
2019-02-26T03:34:33.904Z,35.70
2019-02-26T03:37:03.922Z,33.53
2019-02-26T03:39:33.399Z,40.60
2019-02-26T03:42:05.717Z,38.47
2019-02-26T03:44:36.697Z,44.60
2019-02-26T03:47:09.143Z,37.93
2019-02-26T03:49:42.321Z,40.65
2019-02-26T03:52:15.371Z,32.77
2019-02-26T03:54:48.627Z,42.90
2019-02-26T03:57:20.113Z,48.87
2019-02-26T03:59:50.355Z,42.97
2019-02-26T04:02:23.470Z,44.93
2019-02-26T04:04:57.248Z,43.30
2019-02-26T04:07:28.343Z,47.10
2019-02-26T04:10:01.962Z,40.07
2019-02-26T04:12:39.244Z,45.57
2019-02-26T04:15:13.351Z,38.67
2019-02-26T04:17:44.438Z,43.67
2019-02-26T04:20:15.811Z,38.50
2019-02-26T04:22:50.085Z,42.27
2019-02-26T04:25:38.873Z,43.33
2019-02-26T04:28:32.990Z,46.77
2019-02-26T04:31:03.129Z,41.10
2019-02-26T04:34:01.141Z,42.27
2019-02-26T04:36:44.850Z,46.03
2019-02-26T04:39:34.449Z,45.60
2019-02-26T04:42:17.601Z,39.93
2019-02-26T04:45:05.882Z,42.30
2019-02-26T04:47:52.447Z,45.83
2019-02-26T04:50:28.761Z,42.43
2019-02-26T04:53:01.510Z,43.77
2019-02-26T04:55:29.739Z,43.17
2019-02-26T04:58:01.987Z,48.10
2019-02-26T05:00:36.036Z,44.13
2019-02-26T05:03:05.111Z,37.20
2019-02-26T05:05:37.126Z,42.73
2019-02-26T05:08:09.955Z,40.53
2019-02-26T05:10:43.234Z,43.47
2019-02-26T05:13:16.353Z,41.28
2019-02-26T05:15:47.240Z,38.67
2019-02-26T05:18:22.668Z,38.43
2019-02-26T05:20:51.271Z,36.03
2019-02-26T05:23:25.910Z,43.10
2019-02-26T05:26:18.092Z,41.40
2019-02-26T05:28:49.692Z,45.37
2019-02-26T05:31:21.162Z,37.93
2019-02-26T05:33:57.727Z,78.03
2019-02-26T05:36:31.744Z,40.13
2019-02-26T05:39:02.810Z,45.47
2019-02-26T05:41:32.011Z,42.50
2019-02-26T05:44:06.638Z,48.70
2019-02-26T05:46:36.739Z,48.50
2019-02-26T05:49:12.514Z,43.63
2019-02-26T05:51:40.788Z,43.57
2019-02-26T05:54:17.452Z,39.67
2019-02-26T05:56:44.132Z,42.10
2019-02-26T05:59:15.416Z,56.17
2019-02-26T06:01:47.467Z,49.17
2019-02-26T06:04:20.599Z,48.53
2019-02-26T06:06:56.055Z,47.27
2019-02-26T06:09:29.874Z,45.73
2019-02-26T06:11:59.728Z,47.60
2019-02-26T06:14:33.296Z,42.43
2019-02-26T06:17:04.243Z,47.23
2019-02-26T06:19:51.824Z,46.60
2019-02-26T06:22:26.041Z,50.23
2019-02-26T06:24:59.503Z,55.23
2019-02-26T06:27:29.188Z,55.10
2019-02-26T06:30:00.908Z,52.27
2019-02-26T06:32:35.211Z,51.03
2019-02-26T06:35:13.695Z,50.88
2019-02-26T06:37:45.292Z,52.37
2019-02-26T06:40:19.964Z,52.40
2019-02-26T06:43:10.228Z,49.90
2019-02-26T06:45:43.591Z,50.17
2019-02-26T06:48:19.335Z,50.33
2019-02-26T06:50:47.986Z,53.83
2019-02-26T06:53:21.536Z,62.20
2019-02-26T06:55:50.435Z,110.40
2019-02-26T06:58:21.272Z,97.33
2019-02-26T07:00:55.146Z,83.50
2019-02-26T07:03:24.801Z,67.57
2019-02-26T07:06:01.745Z,60.27
2019-02-26T07:08:30.972Z,60.60
2019-02-26T07:11:03.826Z,61.13
2019-02-26T07:13:38.600Z,53.50
2019-02-26T07:16:07.346Z,56.50
2019-02-26T07:18:40.393Z,53.03
2019-02-26T07:21:11.424Z,57.63
2019-02-26T07:23:43.834Z,52.77
2019-02-26T07:26:15.942Z,50.97
2019-02-26T07:28:48.287Z,60.03
2019-02-26T07:31:18.803Z,56.63
2019-02-26T07:33:51.503Z,58.80
2019-02-26T07:36:23.622Z,54.03
2019-02-26T07:38:56.023Z,62.73
2019-02-26T07:41:28.392Z,57.20
2019-02-26T07:44:00.196Z,56.53
2019-02-26T07:46:33.188Z,68.43
2019-02-26T07:49:04.875Z,55.63
2019-02-26T07:51:36.419Z,55.80
2019-02-26T07:54:07.982Z,56.10
2019-02-26T07:56:40.156Z,54.67
2019-02-26T07:59:12.577Z,51.97
2019-02-26T08:01:47.094Z,59.83
2019-02-26T08:04:19.235Z,54.42
2019-02-26T08:06:51.952Z,58.90
2019-02-26T08:09:23.598Z,71.70
2019-02-26T08:11:54.488Z,63.33
2019-02-26T08:14:26.772Z,62.23
2019-02-26T08:17:01.919Z,56.17
2019-02-26T08:19:37.611Z,75.37
2019-02-26T08:22:06.566Z,59.10
2019-02-26T08:24:36.443Z,65.53
2019-02-26T08:27:08.519Z,58.23
2019-02-26T08:29:42.014Z,78.37
2019-02-26T08:32:15.932Z,73.63
2019-02-26T08:34:45.441Z,82.27
2019-02-26T08:37:16.379Z,204.67
2019-02-26T08:39:48.835Z,109.50
2019-02-26T08:42:21.342Z,66.97
2019-02-26T08:44:54.210Z,87.00
2019-02-26T08:47:23.791Z,85.90
2019-02-26T08:49:53.759Z,78.47
2019-02-26T08:52:25.029Z,64.12
2019-02-26T08:54:56.038Z,76.17
2019-02-26T08:57:30.295Z,68.87
2019-02-26T09:00:03.447Z,62.37
2019-02-26T09:02:33.343Z,61.73
2019-02-26T09:05:07.490Z,66.90
2019-02-26T09:07:43.278Z,69.73
2019-02-26T09:10:15.840Z,65.67
2019-02-26T09:12:49.079Z,76.80
2019-02-26T09:15:25.139Z,86.90
2019-02-26T09:17:56.056Z,101.23
2019-02-26T09:20:27.812Z,91.57
2019-02-26T09:22:59.516Z,61.37
2019-02-26T09:25:31.352Z,66.13
2019-02-26T09:28:03.229Z,77.57
2019-02-26T09:30:35.834Z,76.40
2019-02-26T09:33:08.325Z,84.83
2019-02-26T09:35:38.866Z,73.33
2019-02-26T09:40:45.158Z,63.07
2019-02-26T09:43:17.268Z,62.73
2019-02-26T09:45:50.666Z,60.20
2019-02-26T09:48:22.041Z,59.53
2019-02-26T09:50:55.223Z,60.93
2019-02-26T09:53:26.057Z,59.03
2019-02-26T09:55:57.146Z,66.13
2019-02-26T09:58:28.101Z,59.17
2019-02-26T10:01:00.282Z,60.77
2019-02-26T10:03:34.466Z,66.90
2019-02-26T10:06:05.169Z,65.20
2019-02-26T10:08:35.286Z,67.47
2019-02-26T10:11:18.488Z,65.17
2019-02-26T10:13:51.220Z,71.90
2019-02-26T10:16:28.117Z,66.75
2019-02-26T10:18:58.676Z,60.30
2019-02-26T10:21:32.196Z,57.13
2019-02-26T10:24:04.480Z,61.90
2019-02-26T10:26:38.313Z,65.87
2019-02-26T10:29:08.729Z,56.90
2019-02-26T10:31:41.106Z,56.90
2019-02-26T10:34:15.417Z,53.17
2019-02-26T10:36:49.173Z,76.43
2019-02-26T10:39:20.823Z,56.23
2019-02-26T10:41:52.197Z,57.60
2019-02-26T10:44:24.430Z,61.42
2019-02-26T10:46:55.499Z,55.17
2019-02-26T10:49:28.635Z,52.57
2019-02-26T10:51:59.832Z,49.60
2019-02-26T10:54:34.232Z,50.43
2019-02-26T10:57:07.093Z,53.10
2019-02-26T10:59:34.757Z,54.17
2019-02-26T11:02:05.703Z,52.23
2019-02-26T11:04:41.108Z,62.07
2019-02-26T11:07:11.479Z,49.27
2019-02-26T11:09:44.714Z,52.37
2019-02-26T11:12:20.092Z,44.83
2019-02-26T11:14:52.676Z,53.37
2019-02-26T11:17:26.405Z,49.53
2019-02-26T11:19:58.532Z,49.60
2019-02-26T11:22:30.234Z,56.70
2019-02-26T11:25:03.318Z,47.80
2019-02-26T11:27:37.820Z,48.80
2019-02-26T11:30:10.353Z,64.83
2019-02-26T11:32:42.257Z,53.07
2019-02-26T11:35:17.054Z,52.43
2019-02-26T11:37:49.827Z,63.37
2019-02-26T11:40:29.569Z,53.13
2019-02-26T11:43:04.461Z,71.63
2019-02-26T11:45:32.877Z,69.40
2019-02-26T11:48:06.017Z,53.67
2019-02-26T11:50:38.599Z,46.90
2019-02-26T11:53:10.069Z,47.80
2019-02-26T11:55:43.104Z,44.20
2019-02-26T11:58:16.058Z,45.53
2019-02-26T12:00:50.170Z,44.47
2019-02-26T12:03:22.830Z,56.13
2019-02-26T12:05:56.032Z,49.30
2019-02-26T12:08:28.476Z,45.90
2019-02-26T12:11:03.629Z,43.50
2019-02-26T12:13:31.916Z,37.03
2019-02-26T12:16:02.882Z,43.77
2019-02-26T12:18:34.284Z,43.30
2019-02-26T12:21:07.903Z,43.10
2019-02-26T12:23:39.739Z,40.87
2019-02-26T12:26:10.104Z,45.43
2019-02-26T12:28:42.468Z,42.77
2019-02-26T12:31:14.930Z,37.17
2019-02-26T12:33:44.746Z,51.20
2019-02-26T12:36:14.548Z,38.30
2019-02-26T12:38:47.171Z,37.97
2019-02-26T12:41:19.086Z,43.13
2019-02-26T12:43:49.368Z,46.27
2019-02-26T12:46:21.604Z,284.93
2019-02-26T12:48:51.042Z,104.63
2019-02-26T12:51:22.707Z,47.73
2019-02-26T12:53:54.840Z,50.83
2019-02-26T12:56:27.009Z,43.03
2019-02-26T12:58:56.287Z,45.13
2019-02-26T13:01:26.225Z,40.83
2019-02-26T13:03:57.158Z,43.17
2019-02-26T13:06:28.050Z,38.87
2019-02-26T13:09:01.101Z,40.53
2019-02-26T13:11:33.617Z,36.37
2019-02-26T13:14:04.548Z,36.57
2019-02-26T13:16:35.446Z,39.47
2019-02-26T13:19:06.307Z,36.50
2019-02-26T13:21:42.562Z,43.57
2019-02-26T13:24:14.387Z,41.20
2019-02-26T13:26:46.897Z,36.70
2019-02-26T13:29:15.012Z,35.95
2019-02-26T13:31:55.729Z,37.30
2019-02-26T13:34:17.900Z,40.10
2019-02-26T13:36:53.748Z,35.03
2019-02-26T13:41:58.597Z,36.83
2019-02-26T13:44:25.070Z,39.73
2019-02-26T13:46:54.978Z,37.93
2019-02-26T13:49:27.323Z,37.80
2019-02-26T13:52:00.226Z,36.30
2019-02-26T13:54:32.622Z,35.90
2019-02-26T13:57:02.655Z,34.97
2019-02-26T13:59:34.849Z,41.43
2019-02-26T14:02:04.599Z,33.50
2019-02-26T14:04:34.509Z,39.47
2019-02-26T14:07:06.883Z,37.53
2019-02-26T14:09:37.928Z,39.20
2019-02-26T14:12:08.950Z,39.23
2019-02-26T14:14:39.892Z,37.13
2019-02-26T14:17:10.885Z,36.13
2019-02-26T14:19:40.735Z,38.93
2019-02-26T14:22:10.658Z,35.40
2019-02-26T14:24:40.698Z,37.77
2019-02-26T14:27:36.044Z,35.80
2019-02-26T14:30:14.924Z,33.10
2019-02-26T14:32:46.149Z,36.60
2019-02-26T14:35:19.126Z,38.73
2019-02-26T14:37:50.632Z,38.73
2019-02-26T14:40:21.586Z,36.47
2019-02-26T14:42:50.871Z,41.33
2019-02-26T14:45:28.962Z,38.55
2019-02-26T14:48:01.168Z,38.27
2019-02-26T14:50:34.196Z,55.00
2019-02-26T14:53:05.070Z,38.43
2019-02-26T14:55:35.902Z,38.60
2019-02-26T14:58:07.352Z,40.43
2019-02-26T15:00:39.990Z,43.17
2019-02-26T15:03:11.112Z,40.70
2019-02-26T15:05:43.523Z,42.03
2019-02-26T15:08:16.219Z,42.87
2019-02-26T15:10:47.327Z,44.73
2019-02-26T15:13:18.414Z,51.37
2019-02-26T15:15:50.976Z,46.13
2019-02-26T15:18:22.200Z,53.23
2019-02-26T15:20:54.328Z,45.10
2019-02-26T15:23:25.563Z,44.40
2019-02-26T15:25:56.549Z,48.53
2019-02-26T15:28:30.719Z,45.13
2019-02-26T15:31:00.503Z,43.03
2019-02-26T15:33:31.880Z,46.57
2019-02-26T15:36:03.127Z,49.47
2019-02-26T15:38:35.617Z,49.03
2019-02-26T15:41:07.265Z,46.53
2019-02-26T15:43:38.288Z,48.60
2019-02-26T15:46:09.484Z,48.27
2019-02-26T15:48:40.590Z,47.13
2019-02-26T15:51:14.587Z,47.10
2019-02-26T15:53:44.458Z,51.90
2019-02-26T15:56:17.845Z,48.50
2019-02-26T15:58:50.170Z,51.63
2019-02-26T16:01:20.345Z,49.87
2019-02-26T16:03:50.296Z,51.93
2019-02-26T16:06:21.248Z,53.13
2019-02-26T16:08:53.555Z,49.23
2019-02-26T16:11:25.935Z,54.17
2019-02-26T16:13:56.965Z,54.23
2019-02-26T16:16:27.943Z,47.70
2019-02-26T16:19:00.737Z,54.93
2019-02-26T16:21:31.311Z,55.53
2019-02-26T16:24:07.315Z,53.77
2019-02-26T16:26:40.983Z,55.83
2019-02-26T16:29:10.044Z,56.33
2019-02-26T16:31:41.213Z,72.57
2019-02-26T16:34:12.368Z,49.10
2019-02-26T16:36:42.236Z,54.84
2019-02-26T16:39:12.339Z,55.17
2019-02-26T16:41:43.374Z,60.50
2019-02-26T16:44:12.506Z,64.30
2019-02-26T16:46:42.697Z,57.73
2019-02-26T16:49:12.462Z,64.45
2019-02-26T16:51:43.590Z,76.77
2019-02-26T16:54:15.697Z,90.03
2019-02-26T16:56:46.616Z,106.97
2019-02-26T16:59:16.591Z,127.45
2019-02-26T17:01:46.631Z,85.10
2019-02-26T17:04:15.943Z,70.37
2019-02-26T17:06:47.018Z,66.27
2019-02-26T17:09:19.013Z,60.20
2019-02-26T17:11:52.311Z,64.50
2019-02-26T17:14:42.391Z,54.47
2019-02-26T17:17:13.436Z,58.53
2019-02-26T17:19:43.239Z,59.23
2019-02-26T17:22:13.182Z,53.03
2019-02-26T17:24:42.127Z,57.50
2019-02-26T17:27:13.275Z,59.15
2019-02-26T17:29:43.179Z,50.03
2019-02-26T17:32:14.027Z,57.17
2019-02-26T17:34:43.790Z,55.83
2019-02-26T17:37:16.150Z,62.27
2019-02-26T17:39:46.482Z,60.93
2019-02-26T17:42:17.807Z,53.10
2019-02-26T17:44:49.448Z,57.70
2019-02-26T17:47:19.362Z,56.73
2019-02-26T17:49:50.720Z,62.73
2019-02-26T17:52:20.687Z,63.17
2019-02-26T17:54:51.672Z,59.27
2019-02-26T17:57:22.999Z,64.32
2019-02-26T17:59:52.849Z,62.57
2019-02-26T18:02:22.680Z,55.93
2019-02-26T18:04:54.998Z,65.20
2019-02-26T18:07:27.482Z,57.93
2019-02-26T18:09:56.687Z,60.53
2019-02-26T18:12:29.809Z,57.73
2019-02-26T18:14:59.514Z,57.43
2019-02-26T18:17:28.837Z,56.13
2019-02-26T18:20:01.398Z,65.13
2019-02-26T18:22:33.952Z,64.20
2019-02-26T18:25:07.956Z,63.53
2019-02-26T18:27:37.937Z,66.83
2019-02-26T18:30:12.327Z,63.70
2019-02-26T18:32:49.991Z,65.57
2019-02-26T18:35:33.793Z,60.73
2019-02-26T18:38:04.801Z,66.87
2019-02-26T18:40:36.971Z,71.23
2019-02-26T18:43:07.797Z,64.87
2019-02-26T18:45:37.643Z,67.17
2019-02-26T18:48:08.556Z,69.97
2019-02-26T18:50:39.372Z,68.27
2019-02-26T18:53:11.728Z,64.90
2019-02-26T18:55:43.929Z,72.50
2019-02-26T18:58:16.434Z,68.13
2019-02-26T19:00:47.939Z,67.55
2019-02-26T19:03:18.734Z,66.30
2019-02-26T19:05:48.010Z,66.97
2019-02-26T19:08:21.619Z,73.13
2019-02-26T19:11:03.675Z,72.37
2019-02-26T19:13:49.900Z,68.00
2019-02-26T19:16:37.880Z,67.90
2019-02-26T19:19:09.136Z,75.73
2019-02-26T19:21:46.022Z,70.07
2019-02-26T19:24:18.451Z,72.67
2019-02-26T19:26:59.063Z,77.10
2019-02-26T19:29:34.759Z,76.03
2019-02-26T19:32:19.695Z,75.27
2019-02-26T19:35:12.041Z,79.97
2019-02-26T19:37:54.712Z,79.23
2019-02-26T19:40:38.976Z,76.45
2019-02-26T19:45:43.863Z,81.27
2019-02-26T19:48:30.435Z,78.20
2019-02-26T19:51:00.839Z,75.47
2019-02-26T19:53:34.491Z,87.20
2019-02-26T19:56:23.376Z,78.70
2019-02-26T19:58:57.054Z,81.90
2019-02-26T20:01:42.218Z,79.47
2019-02-26T20:04:27.001Z,83.60
2019-02-26T20:09:52.124Z,87.47
2019-02-26T20:12:36.714Z,88.67
2019-02-26T20:15:24.668Z,85.27
2019-02-26T20:17:54.422Z,90.13
2019-02-26T20:20:41.086Z,82.10
2019-02-26T20:23:26.467Z,82.43
2019-02-26T20:26:10.814Z,87.67
2019-02-26T20:28:41.580Z,81.80
2019-02-26T20:31:28.863Z,85.40
2019-02-26T20:34:06.817Z,87.33
2019-02-26T20:36:43.221Z,85.10
2019-02-26T20:39:13.122Z,85.90
2019-02-26T20:41:42.487Z,83.17
2019-02-26T20:44:18.300Z,86.63
2019-02-26T20:46:48.174Z,88.40
2019-02-26T20:49:19.137Z,90.57
2019-02-26T20:51:49.005Z,85.07
2019-02-26T20:54:20.083Z,91.00
2019-02-26T20:56:51.139Z,93.37
2019-02-26T20:59:22.108Z,86.47
2019-02-26T21:01:54.363Z,89.77
2019-02-26T21:04:26.611Z,95.97
2019-02-26T21:06:55.931Z,86.63
2019-02-26T21:09:44.937Z,86.27
2019-02-26T21:12:15.856Z,89.00
2019-02-26T21:14:47.622Z,89.27
2019-02-26T21:17:20.693Z,90.87
2019-02-26T21:19:50.631Z,92.27
2019-02-26T21:22:22.023Z,92.70
2019-02-26T21:24:53.852Z,92.33
2019-02-26T21:27:25.954Z,99.87
2019-02-26T21:30:01.313Z,96.00
2019-02-26T21:32:34.372Z,91.83
2019-02-26T21:35:07.591Z,93.70
2019-02-26T21:37:40.051Z,95.93
2019-02-26T21:40:16.954Z,98.23
2019-02-26T21:42:46.890Z,96.87
2019-02-26T21:45:20.029Z,93.60
2019-02-26T21:47:50.067Z,103.70
2019-02-26T21:50:22.034Z,97.83
2019-02-26T21:52:59.976Z,107.07
2019-02-26T21:55:25.058Z,104.20
2019-02-26T21:57:56.165Z,103.13
2019-02-26T22:00:27.198Z,104.60
2019-02-26T22:02:57.140Z,112.33
2019-02-26T22:05:30.013Z,102.63
2019-02-26T22:08:00.565Z,94.87
2019-02-26T22:10:32.827Z,102.47
2019-02-26T22:13:04.345Z,108.17
2019-02-26T22:15:33.270Z,109.17
2019-02-26T22:18:02.162Z,111.37
2019-02-26T22:20:36.175Z,110.07
2019-02-26T22:23:07.734Z,100.93
2019-02-26T22:25:38.491Z,110.27
2019-02-26T22:28:09.831Z,105.27
2019-02-26T22:30:41.104Z,109.20
2019-02-26T22:33:13.353Z,105.90
2019-02-26T22:35:44.431Z,112.93
2019-02-26T22:38:16.060Z,116.63
2019-02-26T22:40:47.099Z,102.57
2019-02-26T22:43:18.167Z,118.07
2019-02-26T22:45:49.178Z,113.43
2019-02-26T22:48:23.837Z,115.30
2019-02-26T22:50:54.814Z,116.73
2019-02-26T22:53:26.700Z,120.03
2019-02-26T22:55:58.903Z,109.47
2019-02-26T22:58:29.850Z,110.17
2019-02-26T23:01:16.969Z,115.20
2019-02-26T23:03:49.240Z,109.83
2019-02-26T23:06:19.276Z,118.73
2019-02-26T23:08:50.322Z,128.07
2019-02-26T23:11:21.553Z,126.67
2019-02-26T23:13:51.532Z,128.97
2019-02-26T23:16:21.510Z,125.30
2019-02-26T23:18:56.211Z,131.10
2019-02-26T23:21:28.435Z,127.00
2019-02-26T23:24:01.416Z,115.00
2019-02-26T23:26:32.342Z,116.87
2019-02-26T23:29:04.025Z,135.03
2019-02-26T23:31:34.084Z,120.47
2019-02-26T23:34:03.409Z,115.97
2019-02-26T23:36:34.540Z,114.93
2019-02-26T23:39:08.879Z,124.67
2019-02-26T23:41:39.916Z,133.80
2019-02-26T23:44:10.438Z,128.73
2019-02-26T23:46:41.554Z,125.13
2019-02-26T23:49:14.118Z,120.33
2019-02-26T23:51:44.079Z,124.70
2019-02-26T23:54:13.919Z,131.17
2019-02-26T23:56:43.782Z,124.87
2019-02-26T23:59:14.731Z,138.57
